sensor_id;sensor_type;location;lat;lon;timestamp;pressure;altitude;pressure_sealevel;temperature;humidity
81545;BME280;70990;50.618;7.346;2024-03-02T00:00:06;96830.09;;;6.05;86.89
81545;BME280;70990;50.618;7.346;2024-03-02T00:02:43;96839.75;;;5.86;86.67
81545;BME280;70990;50.618;7.346;2024-03-02T00:05:14;96845.66;;;6.12;85.68
81545;BME280;70990;50.618;7.346;2024-03-02T00:07:42;96845.59;;;6.15;86.35
81545;BME280;70990;50.618;7.346;2024-03-02T00:10:11;96840.47;;;6.17;85.70
81545;BME280;70990;50.618;7.346;2024-03-02T00:12:41;96842.47;;;6.13;85.07
81545;BME280;70990;50.618;7.346;2024-03-02T00:15:42;96846.06;;;6.10;85.70
81545;BME280;70990;50.618;7.346;2024-03-02T00:18:12;96839.13;;;6.25;85.07
81545;BME280;70990;50.618;7.346;2024-03-02T00:20:40;96844.19;;;6.27;85.45
81545;BME280;70990;50.618;7.346;2024-03-02T00:23:09;96841.53;;;6.23;84.85
81545;BME280;70990;50.618;7.346;2024-03-02T00:25:42;96837.44;;;6.31;84.78
81545;BME280;70990;50.618;7.346;2024-03-02T00:28:21;96834.47;;;6.45;84.15
81545;BME280;70990;50.618;7.346;2024-03-02T00:33:30;96838.31;;;6.28;84.09
81545;BME280;70990;50.618;7.346;2024-03-02T00:35:57;96835.38;;;6.39;83.72
81545;BME280;70990;50.618;7.346;2024-03-02T00:38:23;96818.81;;;6.23;83.65
81545;BME280;70990;50.618;7.346;2024-03-02T00:40:51;96825.78;;;6.27;83.73
81545;BME280;70990;50.618;7.346;2024-03-02T00:43:41;96822.63;;;6.29;83.91
81545;BME280;70990;50.618;7.346;2024-03-02T00:46:12;96813.34;;;6.23;83.92
81545;BME280;70990;50.618;7.346;2024-03-02T00:48:51;96821.78;;;6.32;83.84
81545;BME280;70990;50.618;7.346;2024-03-02T00:51:19;96815.22;;;6.26;83.98
81545;BME280;70990;50.618;7.346;2024-03-02T00:53:45;96817.56;;;6.27;83.13
81545;BME280;70990;50.618;7.346;2024-03-02T00:56:12;96818.69;;;6.30;83.29
81545;BME280;70990;50.618;7.346;2024-03-02T00:58:39;96805.94;;;6.20;83.09
81545;BME280;70990;50.618;7.346;2024-03-02T01:01:06;96819.47;;;6.30;83.01
81545;BME280;70990;50.618;7.346;2024-03-02T01:03:33;96815.06;;;6.36;82.49
81545;BME280;70990;50.618;7.346;2024-03-02T01:06:00;96804.25;;;6.26;82.71
81545;BME280;70990;50.618;7.346;2024-03-02T01:08:27;96807.19;;;6.15;83.14
81545;BME280;70990;50.618;7.346;2024-03-02T01:10:54;96802.66;;;6.28;82.42
81545;BME280;70990;50.618;7.346;2024-03-02T01:13:22;96808.97;;;6.25;82.41
81545;BME280;70990;50.618;7.346;2024-03-02T01:15:49;96811.94;;;6.34;82.08
81545;BME280;70990;50.618;7.346;2024-03-02T01:18:16;96808.34;;;6.18;82.62
81545;BME280;70990;50.618;7.346;2024-03-02T01:20:43;96807.13;;;6.19;82.94
81545;BME280;70990;50.618;7.346;2024-03-02T01:23:09;96805.59;;;6.18;82.58
81545;BME280;70990;50.618;7.346;2024-03-02T01:25:36;96799.06;;;6.31;82.79
81545;BME280;70990;50.618;7.346;2024-03-02T01:28:04;96805.50;;;6.21;82.62
81545;BME280;70990;50.618;7.346;2024-03-02T01:30:31;96796.38;;;6.28;82.51
81545;BME280;70990;50.618;7.346;2024-03-02T01:32:57;96798.97;;;6.15;82.60
81545;BME280;70990;50.618;7.346;2024-03-02T01:35:24;96796.59;;;6.17;82.37
81545;BME280;70990;50.618;7.346;2024-03-02T01:37:50;96790.25;;;6.20;82.28
81545;BME280;70990;50.618;7.346;2024-03-02T01:40:17;96789.63;;;6.32;81.45
81545;BME280;70990;50.618;7.346;2024-03-02T01:42:44;96793.16;;;6.33;81.69
81545;BME280;70990;50.618;7.346;2024-03-02T01:45:10;96794.13;;;6.23;81.60
81545;BME280;70990;50.618;7.346;2024-03-02T01:47:37;96795.47;;;6.34;81.58
81545;BME280;70990;50.618;7.346;2024-03-02T01:50:04;96789.34;;;6.27;81.23
81545;BME280;70990;50.618;7.346;2024-03-02T01:52:30;96796.59;;;6.17;81.81
81545;BME280;70990;50.618;7.346;2024-03-02T01:54:57;96784.47;;;6.15;81.08
81545;BME280;70990;50.618;7.346;2024-03-02T01:57:24;96782.69;;;6.28;81.21
81545;BME280;70990;50.618;7.346;2024-03-02T01:59:50;96784.44;;;6.18;80.94
81545;BME280;70990;50.618;7.346;2024-03-02T02:02:17;96758.81;;;6.25;80.70
81545;BME280;70990;50.618;7.346;2024-03-02T02:04:44;96772.69;;;6.18;80.85
81545;BME280;70990;50.618;7.346;2024-03-02T02:07:10;96774.66;;;6.17;81.06
81545;BME280;70990;50.618;7.346;2024-03-02T02:09:37;96770.22;;;6.00;81.00
81545;BME280;70990;50.618;7.346;2024-03-02T02:12:04;96775.56;;;6.11;80.53
81545;BME280;70990;50.618;7.346;2024-03-02T02:14:30;96764.38;;;6.21;80.83
81545;BME280;70990;50.618;7.346;2024-03-02T02:16:57;96768.16;;;6.07;80.84
81545;BME280;70990;50.618;7.346;2024-03-02T02:19:24;96765.13;;;6.02;81.40
81545;BME280;70990;50.618;7.346;2024-03-02T02:21:52;96762.38;;;6.02;81.27
81545;BME280;70990;50.618;7.346;2024-03-02T02:24:19;96760.25;;;5.90;81.39
81545;BME280;70990;50.618;7.346;2024-03-02T02:26:45;96741.25;;;5.76;82.19
81545;BME280;70990;50.618;7.346;2024-03-02T02:29:12;96759.47;;;5.89;82.38
81545;BME280;70990;50.618;7.346;2024-03-02T02:31:39;96752.44;;;5.88;82.41
81545;BME280;70990;50.618;7.346;2024-03-02T02:34:06;96761.66;;;5.75;82.15
81545;BME280;70990;50.618;7.346;2024-03-02T02:36:33;96762.47;;;5.72;82.37
81545;BME280;70990;50.618;7.346;2024-03-02T02:39:03;96760.44;;;5.76;82.77
81545;BME280;70990;50.618;7.346;2024-03-02T02:41:30;96745.56;;;5.77;82.47
81545;BME280;70990;50.618;7.346;2024-03-02T02:43:56;96748.53;;;5.62;83.66
81545;BME280;70990;50.618;7.346;2024-03-02T02:46:23;96742.91;;;5.96;82.99
81545;BME280;70990;50.618;7.346;2024-03-02T02:48:50;96736.25;;;5.71;82.89
81545;BME280;70990;50.618;7.346;2024-03-02T02:51:16;96722.84;;;5.76;83.39
81545;BME280;70990;50.618;7.346;2024-03-02T02:53:43;96722.84;;;5.76;83.87
81545;BME280;70990;50.618;7.346;2024-03-02T02:56:10;96728.41;;;5.73;83.96
81545;BME280;70990;50.618;7.346;2024-03-02T02:58:36;96722.34;;;5.61;83.71
81545;BME280;70990;50.618;7.346;2024-03-02T03:01:03;96730.59;;;5.58;83.79
81545;BME280;70990;50.618;7.346;2024-03-02T03:03:29;96720.78;;;5.60;84.20
81545;BME280;70990;50.618;7.346;2024-03-02T03:05:56;96728.41;;;5.49;84.52
81545;BME280;70990;50.618;7.346;2024-03-02T03:08:22;96727.94;;;5.54;84.37
81545;BME280;70990;50.618;7.346;2024-03-02T03:10:49;96739.81;;;5.44;84.72
81545;BME280;70990;50.618;7.346;2024-03-02T03:13:15;96724.81;;;5.52;84.90
81545;BME280;70990;50.618;7.346;2024-03-02T03:15:42;96735.19;;;5.41;85.55
81545;BME280;70990;50.618;7.346;2024-03-02T03:18:09;96738.03;;;5.57;85.00
81545;BME280;70990;50.618;7.346;2024-03-02T03:20:36;96741.50;;;5.61;84.77
81545;BME280;70990;50.618;7.346;2024-03-02T03:23:02;96736.28;;;5.44;85.41
81545;BME280;70990;50.618;7.346;2024-03-02T03:25:29;96742.84;;;5.50;86.16
81545;BME280;70990;50.618;7.346;2024-03-02T03:27:56;96715.47;;;5.50;85.23
81545;BME280;70990;50.618;7.346;2024-03-02T03:30:22;96755.31;;;5.54;85.61
81545;BME280;70990;50.618;7.346;2024-03-02T03:32:50;96744.38;;;5.54;84.73
81545;BME280;70990;50.618;7.346;2024-03-02T03:35:17;96739.94;;;5.37;84.93
81545;BME280;70990;50.618;7.346;2024-03-02T03:37:43;96752.09;;;5.36;85.01
81545;BME280;70990;50.618;7.346;2024-03-02T03:40:10;96746.06;;;5.45;85.39
81545;BME280;70990;50.618;7.346;2024-03-02T03:42:37;96736.75;;;5.42;85.84
81545;BME280;70990;50.618;7.346;2024-03-02T03:45:05;96749.19;;;5.47;85.23
81545;BME280;70990;50.618;7.346;2024-03-02T03:47:32;96747.91;;;5.28;86.12
81545;BME280;70990;50.618;7.346;2024-03-02T03:49:58;96738.03;;;5.34;86.17
81545;BME280;70990;50.618;7.346;2024-03-02T03:52:25;96736.66;;;5.46;85.66
81545;BME280;70990;50.618;7.346;2024-03-02T03:54:52;96745.78;;;5.62;85.48
81545;BME280;70990;50.618;7.346;2024-03-02T03:57:18;96739.41;;;5.46;86.02
81545;BME280;70990;50.618;7.346;2024-03-02T03:59:45;96753.06;;;5.49;85.86
81545;BME280;70990;50.618;7.346;2024-03-02T04:02:11;96745.28;;;5.44;85.88
81545;BME280;70990;50.618;7.346;2024-03-02T04:04:38;96741.16;;;5.59;86.14
81545;BME280;70990;50.618;7.346;2024-03-02T04:07:04;96726.56;;;5.66;85.71
81545;BME280;70990;50.618;7.346;2024-03-02T04:09:31;96746.75;;;5.52;86.07
81545;BME280;70990;50.618;7.346;2024-03-02T04:11:57;96746.94;;;5.38;86.81
81545;BME280;70990;50.618;7.346;2024-03-02T04:14:24;96742.09;;;5.49;87.40
81545;BME280;70990;50.618;7.346;2024-03-02T04:16:50;96744.69;;;5.33;87.63
81545;BME280;70990;50.618;7.346;2024-03-02T04:19:17;96744.69;;;5.33;88.15
81545;BME280;70990;50.618;7.346;2024-03-02T04:21:44;96753.56;;;5.14;89.44
81545;BME280;70990;50.618;7.346;2024-03-02T04:24:10;96757.66;;;5.29;89.30
81545;BME280;70990;50.618;7.346;2024-03-02T04:26:36;96756.69;;;5.16;88.19
81545;BME280;70990;50.618;7.346;2024-03-02T04:29:03;96754.75;;;5.13;89.88
81545;BME280;70990;50.618;7.346;2024-03-02T04:31:29;96747.19;;;5.24;89.53
81545;BME280;70990;50.618;7.346;2024-03-02T04:33:56;96754.66;;;5.20;89.71
81545;BME280;70990;50.618;7.346;2024-03-02T04:36:22;96748.72;;;5.25;89.81
81545;BME280;70990;50.618;7.346;2024-03-02T04:38:49;96752.75;;;5.17;89.79
81545;BME280;70990;50.618;7.346;2024-03-02T04:41:15;96763.78;;;4.83;91.44
81545;BME280;70990;50.618;7.346;2024-03-02T04:43:42;96767.13;;;4.98;90.72
81545;BME280;70990;50.618;7.346;2024-03-02T04:46:09;96762.53;;;4.87;90.74
81545;BME280;70990;50.618;7.346;2024-03-02T04:48:35;96774.78;;;5.06;91.01
81545;BME280;70990;50.618;7.346;2024-03-02T04:51:02;96776.59;;;4.90;92.15
81545;BME280;70990;50.618;7.346;2024-03-02T04:53:29;96780.03;;;4.97;91.45
81545;BME280;70990;50.618;7.346;2024-03-02T04:55:56;96780.28;;;5.06;91.18
81545;BME280;70990;50.618;7.346;2024-03-02T04:58:22;96775.56;;;5.07;91.36
81545;BME280;70990;50.618;7.346;2024-03-02T05:00:49;96787.16;;;5.18;90.97
81545;BME280;70990;50.618;7.346;2024-03-02T05:03:15;96789.41;;;4.96;91.70
81545;BME280;70990;50.618;7.346;2024-03-02T05:05:44;96792.47;;;5.02;91.06
81545;BME280;70990;50.618;7.346;2024-03-02T05:08:11;96797.53;;;5.03;90.68
81545;BME280;70990;50.618;7.346;2024-03-02T05:10:37;96797.47;;;5.07;91.43
81545;BME280;70990;50.618;7.346;2024-03-02T05:13:04;96804.22;;;5.29;90.35
81545;BME280;70990;50.618;7.346;2024-03-02T05:15:30;96806.38;;;5.14;91.12
81545;BME280;70990;50.618;7.346;2024-03-02T05:17:57;96813.09;;;5.10;90.67
81545;BME280;70990;50.618;7.346;2024-03-02T05:20:24;96820.22;;;5.04;91.29
81545;BME280;70990;50.618;7.346;2024-03-02T05:22:50;96814.09;;;5.23;91.08
81545;BME280;70990;50.618;7.346;2024-03-02T05:25:16;96801.94;;;5.24;91.06
81545;BME280;70990;50.618;7.346;2024-03-02T05:27:43;96798.13;;;5.18;90.78
81545;BME280;70990;50.618;7.346;2024-03-02T05:30:10;96804.50;;;5.08;90.54
81545;BME280;70990;50.618;7.346;2024-03-02T05:32:36;96806.78;;;5.13;90.07
81545;BME280;70990;50.618;7.346;2024-03-02T05:35:03;96806.84;;;5.09;91.12
81545;BME280;70990;50.618;7.346;2024-03-02T05:37:30;96807.69;;;5.03;90.49
81545;BME280;70990;50.618;7.346;2024-03-02T05:39:56;96807.53;;;5.17;90.51
81545;BME280;70990;50.618;7.346;2024-03-02T05:42:23;96799.22;;;4.94;91.23
81545;BME280;70990;50.618;7.346;2024-03-02T05:44:49;96805.75;;;5.03;91.45
81545;BME280;70990;50.618;7.346;2024-03-02T05:47:16;96794.56;;;4.91;92.31
81545;BME280;70990;50.618;7.346;2024-03-02T05:49:43;96798.94;;;4.84;93.03
81545;BME280;70990;50.618;7.346;2024-03-02T05:52:09;96799.66;;;4.88;93.33
81545;BME280;70990;50.618;7.346;2024-03-02T05:54:36;96795.13;;;4.78;92.79
81545;BME280;70990;50.618;7.346;2024-03-02T05:57:02;96785.84;;;4.69;94.05
81545;BME280;70990;50.618;7.346;2024-03-02T05:59:29;96797.72;;;4.89;93.35
81545;BME280;70990;50.618;7.346;2024-03-02T06:01:56;96805.22;;;4.81;93.21
81545;BME280;70990;50.618;7.346;2024-03-02T06:04:22;96814.59;;;4.84;92.99
81545;BME280;70990;50.618;7.346;2024-03-02T06:06:49;96820.34;;;4.93;92.51
81545;BME280;70990;50.618;7.346;2024-03-02T06:09:16;96822.31;;;4.93;92.20
81545;BME280;70990;50.618;7.346;2024-03-02T06:11:43;96822.78;;;4.84;92.76
81545;BME280;70990;50.618;7.346;2024-03-02T06:14:09;96824.50;;;4.74;92.32
81545;BME280;70990;50.618;7.346;2024-03-02T06:16:38;96829.03;;;4.84;92.72
81545;BME280;70990;50.618;7.346;2024-03-02T06:19:05;96824.88;;;4.73;92.61
81545;BME280;70990;50.618;7.346;2024-03-02T06:21:31;96839.34;;;4.73;93.23
81545;BME280;70990;50.618;7.346;2024-03-02T06:23:58;96835.88;;;5.00;92.65
81545;BME280;70990;50.618;7.346;2024-03-02T06:26:24;96830.38;;;4.69;92.78
81545;BME280;70990;50.618;7.346;2024-03-02T06:28:51;96858.22;;;4.98;92.15
81545;BME280;70990;50.618;7.346;2024-03-02T06:31:18;96853.44;;;5.06;91.86
81545;BME280;70990;50.618;7.346;2024-03-02T06:33:46;96857.97;;;5.16;92.15
81545;BME280;70990;50.618;7.346;2024-03-02T06:36:13;96859.84;;;4.92;91.93
81545;BME280;70990;50.618;7.346;2024-03-02T06:38:39;96854.16;;;5.10;91.92
81545;BME280;70990;50.618;7.346;2024-03-02T06:41:08;96860.25;;;4.91;92.07
81545;BME280;70990;50.618;7.346;2024-03-02T06:43:35;96849.91;;;5.05;91.19
81545;BME280;70990;50.618;7.346;2024-03-02T06:46:01;96850.63;;;5.09;90.87
81545;BME280;70990;50.618;7.346;2024-03-02T06:48:28;96856.59;;;5.01;90.91
81545;BME280;70990;50.618;7.346;2024-03-02T06:50:55;96856.34;;;4.92;92.03
81545;BME280;70990;50.618;7.346;2024-03-02T06:53:22;96858.13;;;5.05;91.27
81545;BME280;70990;50.618;7.346;2024-03-02T06:55:48;96864.09;;;4.97;91.45
81545;BME280;70990;50.618;7.346;2024-03-02T06:58:15;96864.47;;;4.99;91.85
81545;BME280;70990;50.618;7.346;2024-03-02T07:00:42;96864.16;;;4.90;92.54
81545;BME280;70990;50.618;7.346;2024-03-02T07:03:09;96863.16;;;5.07;91.09
81545;BME280;70990;50.618;7.346;2024-03-02T07:05:36;96863.53;;;5.09;91.13
81545;BME280;70990;50.618;7.346;2024-03-02T07:08:02;96861.25;;;5.34;90.33
81545;BME280;70990;50.618;7.346;2024-03-02T07:10:29;96860.16;;;5.28;90.73
81545;BME280;70990;50.618;7.346;2024-03-02T07:12:55;96862.84;;;5.32;90.68
81545;BME280;70990;50.618;7.346;2024-03-02T07:15:22;96865.25;;;5.30;90.47
81545;BME280;70990;50.618;7.346;2024-03-02T07:17:48;96868.84;;;5.23;90.80
81545;BME280;70990;50.618;7.346;2024-03-02T07:20:15;96871.19;;;5.51;90.18
81545;BME280;70990;50.618;7.346;2024-03-02T07:22:42;96874.25;;;5.57;89.06
81545;BME280;70990;50.618;7.346;2024-03-02T07:25:10;96870.94;;;5.69;88.70
81545;BME280;70990;50.618;7.346;2024-03-02T07:27:57;96861.38;;;5.81;88.05
81545;BME280;70990;50.618;7.346;2024-03-02T07:30:23;96871.47;;;5.87;87.78
81545;BME280;70990;50.618;7.346;2024-03-02T07:32:50;96878.38;;;5.99;86.52
81545;BME280;70990;50.618;7.346;2024-03-02T07:35:17;96874.06;;;6.21;86.69
81545;BME280;70990;50.618;7.346;2024-03-02T07:37:43;96875.03;;;6.11;86.93
81545;BME280;70990;50.618;7.346;2024-03-02T07:40:11;96884.09;;;6.31;85.64
81545;BME280;70990;50.618;7.346;2024-03-02T07:42:38;96876.69;;;6.28;84.76
81545;BME280;70990;50.618;7.346;2024-03-02T07:45:06;96884.34;;;6.40;84.75
81545;BME280;70990;50.618;7.346;2024-03-02T07:47:34;96873.81;;;6.59;84.09
81545;BME280;70990;50.618;7.346;2024-03-02T07:50:01;96888.31;;;6.59;83.76
81545;BME280;70990;50.618;7.346;2024-03-02T07:52:28;96894.94;;;6.38;83.60
81545;BME280;70990;50.618;7.346;2024-03-02T07:54:55;96887.91;;;6.37;84.43
81545;BME280;70990;50.618;7.346;2024-03-02T07:57:21;96888.88;;;6.27;83.91
81545;BME280;70990;50.618;7.346;2024-03-02T07:59:48;96899.22;;;6.63;82.86
81545;BME280;70990;50.618;7.346;2024-03-02T08:02:14;96900.00;;;6.63;81.79
81545;BME280;70990;50.618;7.346;2024-03-02T08:04:41;96903.72;;;6.96;81.74
81545;BME280;70990;50.618;7.346;2024-03-02T08:07:08;96897.06;;;6.74;80.95
81545;BME280;70990;50.618;7.346;2024-03-02T08:09:35;96906.44;;;6.76;81.00
81545;BME280;70990;50.618;7.346;2024-03-02T08:12:01;96907.66;;;6.95;81.59
81545;BME280;70990;50.618;7.346;2024-03-02T08:14:28;96912.81;;;6.93;81.47
81545;BME280;70990;50.618;7.346;2024-03-02T08:16:54;96902.78;;;7.03;81.39
81545;BME280;70990;50.618;7.346;2024-03-02T08:19:21;96895.91;;;7.14;80.33
81545;BME280;70990;50.618;7.346;2024-03-02T08:21:47;96902.06;;;7.38;79.41
81545;BME280;70990;50.618;7.346;2024-03-02T08:24:14;96901.69;;;7.56;79.15
81545;BME280;70990;50.618;7.346;2024-03-02T08:26:41;96903.84;;;7.48;78.98
81545;BME280;70990;50.618;7.346;2024-03-02T08:29:07;96896.31;;;7.33;78.25
81545;BME280;70990;50.618;7.346;2024-03-02T08:31:34;96907.25;;;7.16;78.38
81545;BME280;70990;50.618;7.346;2024-03-02T08:34:02;96897.97;;;7.66;78.07
81545;BME280;70990;50.618;7.346;2024-03-02T08:36:29;96889.84;;;7.43;77.94
81545;BME280;70990;50.618;7.346;2024-03-02T08:38:55;96879.34;;;7.74;77.68
81545;BME280;70990;50.618;7.346;2024-03-02T08:41:22;96885.94;;;7.76;76.97
81545;BME280;70990;50.618;7.346;2024-03-02T08:43:48;96885.94;;;7.76;76.68
81545;BME280;70990;50.618;7.346;2024-03-02T08:46:15;96899.75;;;7.92;76.57
81545;BME280;70990;50.618;7.346;2024-03-02T08:48:42;96894.69;;;7.55;76.21
81545;BME280;70990;50.618;7.346;2024-03-02T08:51:08;96894.25;;;7.92;75.93
81545;BME280;70990;50.618;7.346;2024-03-02T08:53:35;96899.97;;;7.82;74.98
81545;BME280;70990;50.618;7.346;2024-03-02T08:56:02;96906.44;;;8.07;74.53
81545;BME280;70990;50.618;7.346;2024-03-02T08:58:29;96911.53;;;8.25;73.90
81545;BME280;70990;50.618;7.346;2024-03-02T09:00:55;96905.13;;;8.48;73.80
81545;BME280;70990;50.618;7.346;2024-03-02T09:03:22;96919.88;;;8.05;73.61
81545;BME280;70990;50.618;7.346;2024-03-02T09:05:49;96921.47;;;8.55;74.59
81545;BME280;70990;50.618;7.346;2024-03-02T09:08:15;96914.34;;;8.86;73.21
81545;BME280;70990;50.618;7.346;2024-03-02T09:10:42;96908.88;;;8.70;70.58
81545;BME280;70990;50.618;7.346;2024-03-02T09:13:08;96910.34;;;8.59;71.17
81545;BME280;70990;50.618;7.346;2024-03-02T09:15:35;96900.88;;;8.60;70.90
81545;BME280;70990;50.618;7.346;2024-03-02T09:18:03;96895.25;;;8.79;71.33
81545;BME280;70990;50.618;7.346;2024-03-02T09:20:30;96886.91;;;8.83;71.02
81545;BME280;70990;50.618;7.346;2024-03-02T09:22:56;96895.56;;;8.98;70.56
81545;BME280;70990;50.618;7.346;2024-03-02T09:25:23;96905.56;;;8.92;69.81
81545;BME280;70990;50.618;7.346;2024-03-02T09:27:49;96891.09;;;8.87;70.17
81545;BME280;70990;50.618;7.346;2024-03-02T09:30:16;96889.13;;;9.17;69.50
81545;BME280;70990;50.618;7.346;2024-03-02T09:32:43;96890.69;;;9.18;69.45
81545;BME280;70990;50.618;7.346;2024-03-02T09:35:12;96886.09;;;8.99;70.24
81545;BME280;70990;50.618;7.346;2024-03-02T09:37:39;96887.97;;;9.02;69.68
81545;BME280;70990;50.618;7.346;2024-03-02T09:40:05;96888.81;;;8.70;70.29
81545;BME280;70990;50.618;7.346;2024-03-02T09:42:32;96893.72;;;9.36;69.66
81545;BME280;70990;50.618;7.346;2024-03-02T09:44:59;96882.44;;;9.30;68.88
81545;BME280;70990;50.618;7.346;2024-03-02T09:47:25;96885.22;;;9.30;69.69
81545;BME280;70990;50.618;7.346;2024-03-02T09:49:52;96889.09;;;9.58;68.25
81545;BME280;70990;50.618;7.346;2024-03-02T09:52:19;96876.56;;;9.83;67.76
81545;BME280;70990;50.618;7.346;2024-03-02T09:54:47;96881.50;;;9.75;66.87
81545;BME280;70990;50.618;7.346;2024-03-02T09:57:14;96885.56;;;9.45;66.54
81545;BME280;70990;50.618;7.346;2024-03-02T09:59:41;96888.84;;;9.40;68.33
81545;BME280;70990;50.618;7.346;2024-03-02T10:02:07;96878.09;;;10.09;67.29
81545;BME280;70990;50.618;7.346;2024-03-02T10:04:34;96880.97;;;10.05;67.24
81545;BME280;70990;50.618;7.346;2024-03-02T10:07:17;96889.69;;;10.04;65.95
81545;BME280;70990;50.618;7.346;2024-03-02T10:09:46;96894.09;;;10.01;66.19
81545;BME280;70990;50.618;7.346;2024-03-02T10:12:14;96885.59;;;10.46;65.55
81545;BME280;70990;50.618;7.346;2024-03-02T10:14:42;96887.34;;;10.53;65.01
81545;BME280;70990;50.618;7.346;2024-03-02T10:17:11;96891.91;;;10.81;65.54
81545;BME280;70990;50.618;7.346;2024-03-02T10:19:38;96890.22;;;10.49;64.39
81545;BME280;70990;50.618;7.346;2024-03-02T10:22:09;96893.84;;;10.59;63.97
81545;BME280;70990;50.618;7.346;2024-03-02T10:24:41;96894.06;;;10.99;64.67
81545;BME280;70990;50.618;7.346;2024-03-02T10:27:10;96893.44;;;10.82;63.76
81545;BME280;70990;50.618;7.346;2024-03-02T10:29:41;96894.22;;;11.17;64.38
81545;BME280;70990;50.618;7.346;2024-03-02T10:32:09;96894.66;;;11.38;64.10
81545;BME280;70990;50.618;7.346;2024-03-02T10:34:37;96893.16;;;11.02;62.72
81545;BME280;70990;50.618;7.346;2024-03-02T10:37:05;96894.44;;;10.41;65.35
81545;BME280;70990;50.618;7.346;2024-03-02T10:39:34;96887.81;;;10.26;65.94
81545;BME280;70990;50.618;7.346;2024-03-02T10:42:02;96880.25;;;10.99;64.84
81545;BME280;70990;50.618;7.346;2024-03-02T10:44:30;96878.25;;;11.21;63.65
81545;BME280;70990;50.618;7.346;2024-03-02T10:46:59;96884.63;;;11.09;63.49
81545;BME280;70990;50.618;7.346;2024-03-02T10:49:27;96875.94;;;10.98;63.89
81545;BME280;70990;50.618;7.346;2024-03-02T10:51:55;96871.50;;;11.22;62.72
81545;BME280;70990;50.618;7.346;2024-03-02T10:54:21;96870.16;;;11.05;63.17
81545;BME280;70990;50.618;7.346;2024-03-02T10:56:48;96865.56;;;10.68;64.69
81545;BME280;70990;50.618;7.346;2024-03-02T10:59:35;96864.13;;;10.50;64.54
81545;BME280;70990;50.618;7.346;2024-03-02T11:02:03;96861.72;;;10.52;65.10
81545;BME280;70990;50.618;7.346;2024-03-02T11:04:32;96853.34;;;10.43;65.04
81545;BME280;70990;50.618;7.346;2024-03-02T11:07:06;96869.16;;;10.43;65.40
81545;BME280;70990;50.618;7.346;2024-03-02T11:09:35;96858.56;;;10.16;66.39
81545;BME280;70990;50.618;7.346;2024-03-02T11:12:10;96860.44;;;9.94;66.82
81545;BME280;70990;50.618;7.346;2024-03-02T11:14:42;96871.16;;;10.04;67.63
81545;BME280;70990;50.618;7.346;2024-03-02T11:17:09;96867.63;;;10.04;67.43
81545;BME280;70990;50.618;7.346;2024-03-02T11:19:38;96866.84;;;9.91;66.94
81545;BME280;70990;50.618;7.346;2024-03-02T11:22:05;96875.00;;;9.69;68.75
81545;BME280;70990;50.618;7.346;2024-03-02T11:24:33;96870.16;;;10.11;67.45
81545;BME280;70990;50.618;7.346;2024-03-02T11:27:05;96866.50;;;9.89;67.47
81545;BME280;70990;50.618;7.346;2024-03-02T11:32:03;96855.78;;;10.16;67.20
81545;BME280;70990;50.618;7.346;2024-03-02T11:34:33;96872.47;;;10.25;67.48
81545;BME280;70990;50.618;7.346;2024-03-02T11:37:04;96863.66;;;10.18;66.54
81545;BME280;70990;50.618;7.346;2024-03-02T11:39:31;96866.31;;;10.21;67.03
81545;BME280;70990;50.618;7.346;2024-03-02T11:41:58;96859.19;;;10.45;65.67
81545;BME280;70990;50.618;7.346;2024-03-02T11:44:26;96848.47;;;10.82;65.05
81545;BME280;70990;50.618;7.346;2024-03-02T11:47:06;96844.81;;;11.07;65.06
81545;BME280;70990;50.618;7.346;2024-03-02T11:49:40;96838.84;;;11.08;64.24
81545;BME280;70990;50.618;7.346;2024-03-02T11:52:09;96844.38;;;11.08;63.72
81545;BME280;70990;50.618;7.346;2024-03-02T11:54:40;96838.50;;;12.11;62.52
81545;BME280;70990;50.618;7.346;2024-03-02T11:57:07;96840.16;;;12.18;60.77
81545;BME280;70990;50.618;7.346;2024-03-02T11:59:34;96839.31;;;11.90;62.79
81545;BME280;70990;50.618;7.346;2024-03-02T12:02:02;96848.91;;;11.67;62.32
81545;BME280;70990;50.618;7.346;2024-03-02T12:04:28;96842.66;;;11.23;62.86
81545;BME280;70990;50.618;7.346;2024-03-02T12:06:56;96837.56;;;11.22;64.18
81545;BME280;70990;50.618;7.346;2024-03-02T12:09:23;96832.84;;;11.31;63.82
81545;BME280;70990;50.618;7.346;2024-03-02T12:12:04;96826.47;;;12.15;62.83
81545;BME280;70990;50.618;7.346;2024-03-02T12:14:32;96822.38;;;12.56;62.03
81545;BME280;70990;50.618;7.346;2024-03-02T12:16:59;96814.66;;;11.74;60.63
81545;BME280;70990;50.618;7.346;2024-03-02T12:19:26;96815.31;;;11.56;63.63
81545;BME280;70990;50.618;7.346;2024-03-02T12:21:55;96814.66;;;11.74;62.95
81545;BME280;70990;50.618;7.346;2024-03-02T12:24:22;96819.00;;;11.84;63.13
81545;BME280;70990;50.618;7.346;2024-03-02T12:26:50;96816.72;;;11.61;59.53
81545;BME280;70990;50.618;7.346;2024-03-02T12:29:19;96814.38;;;11.81;59.11
81545;BME280;70990;50.618;7.346;2024-03-02T12:31:50;96816.91;;;11.97;60.51
81545;BME280;70990;50.618;7.346;2024-03-02T12:34:17;96812.38;;;11.51;60.72
81545;BME280;70990;50.618;7.346;2024-03-02T12:36:45;96807.78;;;11.57;60.60
81545;BME280;70990;50.618;7.346;2024-03-02T12:39:12;96799.84;;;12.08;59.38
81545;BME280;70990;50.618;7.346;2024-03-02T12:41:39;96797.31;;;12.86;58.99
81545;BME280;70990;50.618;7.346;2024-03-02T12:44:06;96790.53;;;13.15;60.55
81545;BME280;70990;50.618;7.346;2024-03-02T12:46:32;96789.75;;;12.32;60.45
81545;BME280;70990;50.618;7.346;2024-03-02T12:49:07;96795.72;;;12.22;60.00
81545;BME280;70990;50.618;7.346;2024-03-02T12:51:35;96794.19;;;12.11;59.80
81545;BME280;70990;50.618;7.346;2024-03-02T12:54:02;96792.75;;;11.98;60.75
81545;BME280;70990;50.618;7.346;2024-03-02T12:56:29;96795.50;;;11.58;60.65
81545;BME280;70990;50.618;7.346;2024-03-02T12:59:05;96798.06;;;11.21;62.16
81545;BME280;70990;50.618;7.346;2024-03-02T13:01:32;96797.31;;;11.52;62.97
81545;BME280;70990;50.618;7.346;2024-03-02T13:03:59;96802.56;;;11.59;62.04
81545;BME280;70990;50.618;7.346;2024-03-02T13:06:27;96786.69;;;12.67;59.21
81545;BME280;70990;50.618;7.346;2024-03-02T13:08:54;96784.06;;;12.90;56.63
81545;BME280;70990;50.618;7.346;2024-03-02T13:11:24;96785.59;;;14.03;55.17
81545;BME280;70990;50.618;7.346;2024-03-02T13:13:51;96778.63;;;14.07;54.32